Time;durP1;ratioP1;P1;durP2;ratioP2;P2;SDS_P1;SDS_P2;PMS_P1;PMS_P2;Temp;Humidity;BMP_temperature;BMP_pressure;BME280_temperature;BME280_humidity;BME280_pressure;Samples;Min_cycle;Max_cycle;Signal;HPM_P1;HPM_P2
2022/01/17 00:00:46;;;;;;;22.05;11.07;;;;;;;6.08;100.00;101459.19;5255302;28;20472;-81
2022/01/17 00:03:16;;;;;;;21.73;10.95;;;;;;;6.11;100.00;101448.81;5246438;28;20028;-79
2022/01/17 00:05:47;;;;;;;21.88;10.60;;;;;;;6.05;100.00;101439.31;5252504;28;20016;-80
2022/01/17 00:08:17;;;;;;;20.13;10.30;;;;;;;6.05;100.00;101443.66;5241322;28;20028;-82
2022/01/17 00:10:48;;;;;;;20.85;10.15;;;;;;;6.07;100.00;101421.16;5246749;28;20032;-80
2022/01/17 00:13:27;;;;;;;23.67;9.52;;;;;;;6.06;100.00;101430.66;5259008;28;20186;-81
2022/01/17 00:16:13;;;;;;;22.08;9.23;;;;;;;6.11;100.00;101423.69;5249305;28;20016;-82
2022/01/17 00:21:18;;;;;;;20.02;9.00;;;;;;;6.17;100.00;101426.28;5256315;28;20043;-82
2022/01/17 00:23:49;;;;;;;20.98;8.32;;;;;;;6.19;100.00;101436.66;5249739;28;20032;-81
2022/01/17 00:26:19;;;;;;;18.63;7.57;;;;;;;6.18;100.00;101455.69;5242176;28;20024;-81
2022/01/17 00:28:49;;;;;;;14.57;7.68;;;;;;;6.23;100.00;101461.75;5237604;28;20037;-82
2022/01/17 00:31:20;;;;;;;14.68;7.20;;;;;;;6.19;100.00;101478.16;5243357;28;20035;-81
2022/01/17 00:33:50;;;;;;;17.45;6.15;;;;;;;6.23;100.00;101469.53;5251184;28;20046;-80
2022/01/17 00:36:20;;;;;;;16.92;6.57;;;;;;;6.20;100.00;101462.59;5256108;28;20031;-80
2022/01/17 00:38:51;;;;;;;15.25;6.35;;;;;;;6.27;100.00;101466.03;5240995;28;20477;-82
2022/01/17 00:41:21;;;;;;;18.73;7.55;;;;;;;6.22;100.00;101473.84;5249339;28;20115;-80
2022/01/17 00:43:51;;;;;;;17.08;6.68;;;;;;;6.28;100.00;101467.78;5255513;28;20063;-80
2022/01/17 00:46:22;;;;;;;15.07;5.80;;;;;;;6.29;100.00;101472.09;5259674;28;20027;-81
2022/01/17 00:48:52;;;;;;;17.70;6.32;;;;;;;6.19;100.00;101467.78;5246235;28;20024;-80
2022/01/17 00:51:22;;;;;;;16.40;6.65;;;;;;;6.24;100.00;101455.69;5250075;28;20263;-80
2022/01/17 00:53:53;;;;;;;14.57;6.57;;;;;;;6.26;100.00;101459.13;5255695;28;20020;-80
2022/01/17 00:56:23;;;;;;;16.40;6.60;;;;;;;6.30;100.00;101448.75;5244013;28;20036;-80
2022/01/17 00:58:53;;;;;;;18.52;6.60;;;;;;;6.36;100.00;101435.72;5246997;28;20017;-80
2022/01/17 01:01:24;;;;;;;15.38;6.82;;;;;;;6.37;100.00;101432.25;5256132;28;20291;-80
2022/01/17 01:03:54;;;;;;;14.27;6.70;;;;;;;6.37;100.00;101410.59;5260238;28;20053;-80
2022/01/17 01:06:24;;;;;;;15.95;6.10;;;;;;;6.31;100.00;101416.72;5240012;28;20027;-81
2022/01/17 01:08:54;;;;;;;14.48;6.18;;;;;;;6.31;100.00;101415.84;5251669;28;20080;-80
2022/01/17 01:11:25;;;;;;;15.98;6.05;;;;;;;6.27;100.00;101435.75;5255921;28;20056;-80
2022/01/17 01:13:55;;;;;;;16.25;6.10;;;;;;;6.23;100.00;101430.59;5256690;28;20023;-80
2022/01/17 01:22:10;;;;;;;13.40;5.93;;;;;;;6.33;100.00;101429.66;5256039;28;20047;-79
2022/01/17 01:30:18;;;;;;;8.82;3.95;;;;;;;6.28;100.00;101444.41;5261783;28;20051;-80
2022/01/17 01:32:53;;;;;;;11.98;4.57;;;;;;;6.32;100.00;101443.53;5261110;28;20024;-80
2022/01/17 01:35:26;;;;;;;15.57;5.10;;;;;;;6.30;100.00;101455.66;5248645;28;20048;-80
2022/01/17 01:37:59;;;;;;;10.57;3.70;;;;;;;6.29;100.00;101433.16;5258690;28;20032;-80
2022/01/17 01:40:29;;;;;;;11.43;4.30;;;;;;;6.26;100.00;101433.19;5259943;28;20367;-80
2022/01/17 01:43:00;;;;;;;12.30;4.68;;;;;;;6.29;100.00;101426.22;5246419;28;20021;-80
2022/01/17 01:45:30;;;;;;;12.05;4.35;;;;;;;6.27;100.00;101424.53;5230563;28;20088;-80
2022/01/17 01:48:01;;;;;;;10.23;3.83;;;;;;;6.29;100.00;101443.53;5255950;28;20087;-80
2022/01/17 01:50:31;;;;;;;9.85;3.28;;;;;;;6.28;100.00;101441.81;5233312;28;20027;-80
2022/01/17 01:53:02;;;;;;;10.23;2.97;;;;;;;6.25;100.00;101442.69;5255810;28;20531;-79
2022/01/17 01:55:32;;;;;;;12.48;2.92;;;;;;;6.23;100.00;101440.97;5255024;28;20099;-80
2022/01/17 01:58:03;;;;;;;13.73;3.35;;;;;;;6.22;100.00;101428.88;5236884;28;20024;-79
2022/01/17 02:00:33;;;;;;;8.98;3.40;;;;;;;6.18;100.00;101433.22;5254237;28;20036;-79
2022/01/17 02:03:05;;;;;;;9.25;3.58;;;;;;;6.21;100.00;101445.28;5255571;28;20025;-80
2022/01/17 02:05:35;;;;;;;13.00;3.58;;;;;;;6.20;100.00;101446.16;5236658;28;20032;-80
2022/01/17 02:08:08;;;;;;;11.07;3.20;;;;;;;6.21;100.00;101463.44;5252431;28;20515;-79
2022/01/17 02:10:39;;;;;;;7.00;2.28;;;;;;;6.18;100.00;101451.38;5261939;28;20477;-80
2022/01/17 02:13:09;;;;;;;7.13;2.55;;;;;;;6.18;100.00;101453.09;5262251;28;20086;-80
2022/01/17 02:15:42;;;;;;;8.02;1.98;;;;;;;6.21;100.00;101442.69;5263620;28;20024;-79
2022/01/17 02:18:19;;;;;;;5.10;1.45;;;;;;;6.13;100.00;101465.22;5261639;28;20355;-80
2022/01/17 02:21:10;;;;;;;10.02;1.80;;;;;;;6.10;100.00;101462.66;5257007;28;20035;-80
2022/01/17 02:23:41;;;;;;;7.45;1.85;;;;;;;6.18;100.00;101476.44;5261589;28;20051;-79
2022/01/17 02:26:12;;;;;;;9.32;1.77;;;;;;;6.14;99.69;101475.63;5251626;28;20032;-79
2022/01/17 02:28:48;;;;;;;7.22;1.95;;;;;;;6.19;98.52;101452.22;5262611;28;20072;-79
2022/01/17 02:31:20;;;;;;;5.55;1.52;;;;;;;6.14;99.18;101431.50;5250218;28;20039;-79
2022/01/17 02:33:51;;;;;;;7.28;1.50;;;;;;;6.11;99.52;101431.50;5263678;28;20350;-79
2022/01/17 02:36:22;;;;;;;13.80;2.28;;;;;;;6.10;100.00;101421.97;5254673;28;20259;-79
2022/01/17 02:38:52;;;;;;;10.88;1.48;;;;;;;6.11;100.00;101397.75;5235781;28;20032;-79
2022/01/17 02:41:27;;;;;;;7.60;1.30;;;;;;;6.10;100.00;101397.78;5251028;28;20039;-80
2022/01/17 02:44:00;;;;;;;5.18;1.50;;;;;;;6.09;100.00;101419.41;5259631;28;20035;-80
2022/01/17 02:46:31;;;;;;;9.60;2.35;;;;;;;5.98;100.00;101441.94;5258165;28;20490;-80
2022/01/17 02:49:03;;;;;;;9.90;1.48;;;;;;;5.95;100.00;101437.59;5259590;28;20038;-78
2022/01/17 02:51:34;;;;;;;9.48;1.90;;;;;;;5.83;100.00;101444.56;5248751;28;20040;-80
2022/01/17 02:54:05;;;;;;;7.95;1.70;;;;;;;5.69;100.00;101438.50;5248999;28;20016;-78
2022/01/17 02:56:35;;;;;;;11.50;2.38;;;;;;;5.81;100.00;101441.13;5258609;28;20039;-79
2022/01/17 02:59:07;;;;;;;9.63;1.60;;;;;;;5.76;100.00;101445.41;5249120;28;20040;-79
2022/01/17 03:01:37;;;;;;;11.32;2.35;;;;;;;5.70;100.00;101419.47;5250880;28;20064;-80
2022/01/17 03:04:07;;;;;;;12.13;2.70;;;;;;;5.72;100.00;101423.81;5241736;28;20023;-79
2022/01/17 03:06:37;;;;;;;9.80;1.77;;;;;;;5.78;100.00;101436.78;5240405;28;20486;-80
2022/01/17 03:09:08;;;;;;;6.47;1.17;;;;;;;5.77;100.00;101437.63;5242083;28;20027;-79
2022/01/17 03:11:38;;;;;;;11.45;1.55;;;;;;;5.80;100.00;101431.59;5258298;28;20032;-80
2022/01/17 03:14:08;;;;;;;11.27;1.73;;;;;;;5.86;100.00;101418.59;5258532;28;20381;-79
2022/01/17 03:16:45;;;;;;;9.77;1.40;;;;;;;5.79;100.00;101403.94;5259011;28;20466;-80
2022/01/17 03:19:16;;;;;;;6.72;1.17;;;;;;;5.81;100.00;101394.44;5256944;28;20025;-79
2022/01/17 03:21:46;;;;;;;7.85;1.60;;;;;;;5.83;100.00;101393.56;5246343;28;20531;-80
2022/01/17 03:24:16;;;;;;;13.77;2.00;;;;;;;5.82;100.00;101397.03;5258960;28;20028;-79
2022/01/17 03:26:47;;;;;;;6.35;1.40;;;;;;;5.83;100.00;101384.91;5246922;28;20024;-79
2022/01/17 03:29:17;;;;;;;10.57;1.80;;;;;;;5.79;100.00;101384.06;5249479;28;20093;-79
2022/01/17 03:31:47;;;;;;;8.60;1.75;;;;;;;5.80;100.00;101387.50;5251024;28;20035;-79
2022/01/17 03:34:17;;;;;;;7.32;1.17;;;;;;;5.86;100.00;101393.56;5243601;28;20031;-79
2022/01/17 03:36:48;;;;;;;11.27;1.75;;;;;;;5.81;100.00;101384.06;5253359;28;20178;-79
2022/01/17 03:39:18;;;;;;;10.48;1.65;;;;;;;5.73;100.00;101373.66;5244760;28;20034;-80
2022/01/17 03:41:49;;;;;;;17.38;2.10;;;;;;;5.80;100.00;101370.25;5245735;28;20017;-80
2022/01/17 03:44:19;;;;;;;8.73;1.70;;;;;;;5.81;100.00;101371.09;5259375;28;20477;-80
2022/01/17 03:46:49;;;;;;;10.65;2.00;;;;;;;5.81;100.00;101391.84;5255389;28;20021;-80
2022/01/17 03:49:19;;;;;;;7.88;1.20;;;;;;;5.84;100.00;101376.25;5248205;28;20107;-80
2022/01/17 03:51:50;;;;;;;7.88;1.35;;;;;;;5.81;100.00;101378.88;5255856;28;20028;-80
2022/01/17 03:54:20;;;;;;;9.48;1.60;;;;;;;5.85;100.00;101365.88;5248834;28;20016;-79
2022/01/17 03:56:50;;;;;;;13.25;1.52;;;;;;;5.86;100.00;101377.09;5255708;28;20032;-79
2022/01/17 03:59:21;;;;;;;14.63;1.52;;;;;;;5.83;100.00;101370.22;5249541;28;20027;-79
2022/01/17 04:01:51;;;;;;;9.95;1.40;;;;;;;5.83;100.00;101378.00;5251503;28;20078;-79
2022/01/17 04:04:22;;;;;;;13.07;1.70;;;;;;;5.84;100.00;101363.28;5258402;28;20039;-80
2022/01/17 04:06:52;;;;;;;17.88;1.60;;;;;;;5.88;100.00;101372.81;5252968;28;20092;-80
2022/01/17 04:09:22;;;;;;;11.13;1.40;;;;;;;5.83;100.00;101374.53;5257914;28;20084;-79
2022/01/17 04:11:52;;;;;;;8.10;1.40;;;;;;;5.91;100.00;101375.38;5254277;28;20029;-80
2022/01/17 04:14:23;;;;;;;7.50;1.30;;;;;;;5.90;100.00;101371.91;5248698;28;20034;-79
2022/01/17 04:16:53;;;;;;;9.88;1.40;;;;;;;5.87;100.00;101381.44;5255880;28;20020;-79
2022/01/17 04:19:23;;;;;;;11.10;1.42;;;;;;;5.87;100.00;101391.81;5248096;28;20030;-79
2022/01/17 04:21:54;;;;;;;12.10;1.38;;;;;;;5.91;100.00;101393.53;5254973;28;20126;-79
2022/01/17 04:24:24;;;;;;;10.45;1.35;;;;;;;5.91;100.00;101389.19;5257899;28;20020;-78
2022/01/17 04:26:54;;;;;;;7.60;1.20;;;;;;;5.92;100.00;101406.47;5254909;28;20039;-79
2022/01/17 04:29:25;;;;;;;8.55;1.45;;;;;;;5.94;100.00;101385.75;5258046;28;20073;-79
2022/01/17 04:31:55;;;;;;;13.80;1.52;;;;;;;5.94;100.00;101381.41;5252510;28;20025;-80
2022/01/17 04:34:25;;;;;;;7.93;1.17;;;;;;;5.91;100.00;101384.00;5256552;28;20020;-79
2022/01/17 04:36:55;;;;;;;14.70;1.50;;;;;;;5.96;100.00;101390.06;5237586;28;20032;-79
2022/01/17 04:39:26;;;;;;;7.88;0.98;;;;;;;5.92;100.00;101395.25;5257217;28;20019;-79
2022/01/17 04:41:57;;;;;;;12.10;1.38;;;;;;;5.92;100.00;101398.69;5255957;28;20028;-80
2022/01/17 04:47:16;;;;;;;11.25;1.40;;;;;;;5.97;100.00;101411.66;5259645;28;20034;-79
2022/01/17 04:49:46;;;;;;;10.73;1.58;;;;;;;5.98;100.00;101413.38;5256102;28;20024;-79
2022/01/17 04:52:17;;;;;;;11.55;1.50;;;;;;;5.98;100.00;101411.69;5249135;28;20210;-79
2022/01/17 04:54:53;;;;;;;9.93;1.35;;;;;;;6.02;100.00;101403.00;5255279;28;20522;-79
2022/01/17 04:57:23;;;;;;;8.65;1.55;;;;;;;5.93;100.00;101404.78;5252034;28;20028;-80
2022/01/17 04:59:53;;;;;;;15.05;1.58;;;;;;;5.99;100.00;101404.72;5246532;28;20097;-79
2022/01/17 05:02:24;;;;;;;11.75;2.00;;;;;;;5.93;100.00;101403.03;5236026;28;20032;-80
2022/01/17 05:04:54;;;;;;;14.68;1.90;;;;;;;5.95;100.00;101406.47;5255750;28;20025;-79
2022/01/17 05:07:25;;;;;;;11.38;1.38;;;;;;;5.95;100.00;101410.81;5255674;28;20028;-79
2022/01/17 05:09:55;;;;;;;9.20;1.45;;;;;;;5.97;100.00;101403.88;5246147;28;20024;-79
2022/01/17 05:12:26;;;;;;;11.88;1.35;;;;;;;5.88;100.00;101398.75;5240494;28;20039;-79
2022/01/17 05:14:57;;;;;;;10.02;1.60;;;;;;;5.97;100.00;101409.06;5234376;28;20032;-79
2022/01/17 05:19:58;;;;;;;8.40;1.38;;;;;;;6.00;100.00;101398.69;5250577;28;20107;-80
2022/01/17 05:22:33;;;;;;;13.07;1.70;;;;;;;5.97;100.00;101415.13;5257925;28;20418;-80
2022/01/17 05:25:08;;;;;;;7.57;1.30;;;;;;;5.96;100.00;101400.44;5250754;28;20024;-79
2022/01/17 05:27:39;;;;;;;6.57;1.77;;;;;;;5.93;100.00;101397.84;5255632;28;20097;-79
2022/01/17 05:30:13;;;;;;;8.65;1.00;;;;;;;5.94;100.00;101398.72;5257940;28;20020;-80
2022/01/17 05:32:44;;;;;;;10.75;1.27;;;;;;;5.95;100.00;101377.94;5256010;28;20450;-79
2022/01/17 05:35:15;;;;;;;9.00;1.30;;;;;;;5.97;100.00;101402.16;5255453;28;20048;-78
2022/01/17 05:37:48;;;;;;;6.53;0.98;;;;;;;5.96;100.00;101391.78;5234137;28;20024;-79
2022/01/17 05:40:19;;;;;;;16.95;2.15;;;;;;;5.91;100.00;101399.56;5232510;28;20031;-79
2022/01/17 05:42:50;;;;;;;10.73;1.10;;;;;;;5.93;100.00;101407.38;5249982;28;20047;-80
2022/01/17 05:45:20;;;;;;;12.73;1.50;;;;;;;5.94;100.00;101393.53;5250315;28;20036;-79
2022/01/17 05:47:51;;;;;;;9.02;1.33;;;;;;;5.91;100.00;101398.72;5251257;28;20282;-78
2022/01/17 05:50:21;;;;;;;12.73;1.33;;;;;;;5.94;100.00;101398.72;5237457;28;20386;-78
2022/01/17 05:52:52;;;;;;;8.18;1.20;;;;;;;5.96;100.00;101396.97;5254032;28;20104;-79
2022/01/17 05:55:22;;;;;;;7.80;1.10;;;;;;;5.94;100.00;101390.94;5258717;28;20047;-79
2022/01/17 05:57:52;;;;;;;8.18;1.30;;;;;;;5.96;100.00;101389.19;5255329;28;20029;-79
2022/01/17 06:00:22;;;;;;;8.27;1.30;;;;;;;5.96;100.00;101402.16;5258380;28;20057;-80
2022/01/17 06:02:53;;;;;;;9.68;1.27;;;;;;;5.99;100.00;101397.84;5255070;28;20024;-78
2022/01/17 06:05:23;;;;;;;12.63;1.25;;;;;;;5.93;100.00;101397.00;5246087;28;20032;-79
2022/01/17 06:07:54;;;;;;;11.38;1.40;;;;;;;5.94;100.00;101390.94;5253823;28;20500;-79
2022/01/17 06:10:24;;;;;;;9.93;1.95;;;;;;;5.94;100.00;101414.28;5244796;28;20060;-79
2022/01/17 06:12:55;;;;;;;9.65;1.52;;;;;;;5.85;100.00;101404.78;5243799;28;20021;-79
2022/01/17 06:15:25;;;;;;;14.27;2.00;;;;;;;5.86;100.00;101413.41;5241190;28;20027;-79
2022/01/17 06:17:56;;;;;;;8.73;1.48;;;;;;;5.91;100.00;101419.47;5258906;28;20027;-79
2022/01/17 06:20:26;;;;;;;9.35;1.20;;;;;;;5.91;100.00;101445.41;5251693;28;20020;-79
2022/01/17 06:22:57;;;;;;;14.25;1.48;;;;;;;5.83;100.00;101447.16;5248018;28;20394;-80
2022/01/17 06:25:27;;;;;;;8.65;1.25;;;;;;;5.83;100.00;101434.19;5261144;28;20494;-80
2022/01/17 06:27:58;;;;;;;13.85;1.98;;;;;;;5.84;100.00;101428.13;5258747;28;20107;-80
2022/01/17 06:30:29;;;;;;;11.93;1.67;;;;;;;5.79;100.00;101429.88;5260348;28;20028;-81
2022/01/17 06:32:59;;;;;;;6.60;1.17;;;;;;;5.84;100.00;101395.28;5237364;28;20371;-81
2022/01/17 06:35:30;;;;;;;12.35;1.58;;;;;;;5.75;100.00;101392.69;5252774;28;20108;-81
2022/01/17 06:38:02;;;;;;;11.35;1.80;;;;;;;5.75;100.00;101384.91;5239124;28;20031;-80
2022/01/17 06:40:33;;;;;;;8.98;1.35;;;;;;;5.73;100.00;101370.22;5258369;28;20017;-81
2022/01/17 06:43:06;;;;;;;6.97;1.30;;;;;;;5.75;100.00;101371.94;5253901;28;20021;-82
2022/01/17 06:45:38;;;;;;;10.82;1.40;;;;;;;5.74;100.00;101369.34;5243515;28;20025;-81
2022/01/17 06:48:08;;;;;;;11.23;1.58;;;;;;;5.83;100.00;101377.13;5253096;28;20038;-81
2022/01/17 06:50:39;;;;;;;10.38;1.80;;;;;;;5.85;100.00;101377.97;5255704;28;20461;-82
2022/01/17 06:53:09;;;;;;;12.77;1.67;;;;;;;5.81;100.00;101377.16;5258818;28;20016;-80
2022/01/17 06:55:39;;;;;;;12.40;1.55;;;;;;;5.73;100.00;101380.59;5250555;28;20059;-81
2022/01/17 06:58:10;;;;;;;9.52;1.73;;;;;;;5.80;100.00;101375.44;5259139;28;20066;-81
2022/01/17 07:00:41;;;;;;;13.05;1.70;;;;;;;5.80;100.00;101390.09;5256624;28;20085;-81
2022/01/17 07:03:11;;;;;;;8.80;1.45;;;;;;;5.78;100.00;101412.56;5253980;28;20059;-82
2022/01/17 07:05:41;;;;;;;8.02;1.27;;;;;;;5.77;100.00;101424.66;5254658;28;20020;-80
2022/01/17 07:08:12;;;;;;;10.68;1.50;;;;;;;5.75;100.00;101433.31;5257541;28;20015;-81
2022/01/17 07:10:42;;;;;;;11.70;1.40;;;;;;;5.75;100.00;101446.28;5248112;28;20020;-81
2022/01/17 07:13:13;;;;;;;9.73;1.25;;;;;;;5.81;100.00;101467.03;5259515;28;20043;-81
2022/01/17 07:15:43;;;;;;;6.32;1.10;;;;;;;5.76;100.00;101453.19;5246310;28;20039;-81
2022/01/17 07:18:13;;;;;;;10.07;1.52;;;;;;;5.79;100.00;101422.97;5247614;28;20111;-81
2022/01/17 07:20:44;;;;;;;13.75;1.58;;;;;;;5.81;100.00;101397.91;5245883;28;20028;-80
2022/01/17 07:23:15;;;;;;;8.85;1.30;;;;;;;5.75;100.00;101379.72;5236414;28;20028;-80
2022/01/17 07:25:45;;;;;;;11.52;1.38;;;;;;;5.74;100.00;101375.38;5247801;28;20032;-81
2022/01/17 07:28:16;;;;;;;11.88;1.33;;;;;;;5.69;100.00;101392.72;5261039;28;20028;-81
2022/01/17 07:30:46;;;;;;;12.48;1.88;;;;;;;5.78;100.00;101389.22;5259726;28;20089;-80
2022/01/17 07:33:17;;;;;;;9.07;1.50;;;;;;;5.71;100.00;101374.56;5247511;28;20016;-81
2022/01/17 07:35:48;;;;;;;5.10;1.45;;;;;;;5.71;100.00;101372.81;5259819;28;20024;-82
2022/01/17 07:38:19;;;;;;;12.98;1.55;;;;;;;5.74;100.00;101379.72;5254819;28;20024;-81
2022/01/17 07:40:49;;;;;;;13.35;1.38;;;;;;;5.73;100.00;101390.97;5236036;28;20050;-81
2022/01/17 07:43:19;;;;;;;11.60;1.70;;;;;;;5.72;100.00;101382.31;5256316;28;20036;-81
2022/01/17 07:51:56;;;;;;;8.55;0.98;;;;;;;5.77;100.00;101379.72;5208809;28;20051;-81
2022/01/17 07:54:29;;;;;;;11.25;1.50;;;;;;;5.75;100.00;101397.00;5242130;28;20020;-81
2022/01/17 07:57:00;;;;;;;6.63;1.30;;;;;;;5.78;100.00;101407.38;5258119;28;20549;-81
2022/01/17 07:59:31;;;;;;;7.30;1.17;;;;;;;5.77;100.00;101416.03;5248229;28;20112;-81
2022/01/17 08:02:01;;;;;;;7.05;1.20;;;;;;;5.77;100.00;101419.47;5257149;28;20561;-81
2022/01/17 08:04:32;;;;;;;5.90;1.13;;;;;;;5.76;100.00;101416.91;5258804;28;20477;-81
2022/01/17 08:07:05;;;;;;;7.65;1.30;;;;;;;5.78;100.00;101399.59;5255075;28;20039;-82
2022/01/17 08:09:35;;;;;;;8.73;1.40;;;;;;;5.83;100.00;101421.22;5234070;28;20028;-81
2022/01/17 08:12:08;;;;;;;7.85;1.30;;;;;;;5.79;100.00;101430.75;5255456;28;20032;-81
2022/01/17 08:14:40;;;;;;;6.47;1.20;;;;;;;5.81;100.00;101425.56;5256591;28;20028;-81
2022/01/17 08:17:11;;;;;;;6.72;1.25;;;;;;;5.88;100.00;101416.91;5257940;28;20111;-79
2022/01/17 08:19:42;;;;;;;9.95;1.75;;;;;;;5.88;100.00;101414.31;5255278;28;20057;-79
2022/01/17 08:22:12;;;;;;;10.90;1.33;;;;;;;5.87;100.00;101397.00;5248126;28;20024;-81
2022/01/17 08:24:42;;;;;;;7.25;1.40;;;;;;;5.84;100.00;101413.44;5245936;28;20549;-80
2022/01/17 08:27:12;;;;;;;11.13;1.13;;;;;;;5.87;100.00;101386.59;5245681;28;20032;-80
2022/01/17 08:29:43;;;;;;;8.32;1.30;;;;;;;5.83;100.00;101384.91;5247819;28;20016;-81
2022/01/17 08:32:13;;;;;;;8.75;1.30;;;;;;;5.77;100.00;101377.97;5245505;28;20048;-81
2022/01/17 08:34:44;;;;;;;8.60;1.33;;;;;;;5.70;100.00;101389.25;5256896;28;20410;-80
2022/01/17 08:37:14;;;;;;;10.07;1.40;;;;;;;5.74;100.00;101408.25;5235937;28;20054;-80
2022/01/17 08:39:44;;;;;;;12.52;1.75;;;;;;;5.72;100.00;101399.63;5233743;28;20056;-80
2022/01/17 08:42:14;;;;;;;8.15;1.58;;;;;;;5.70;100.00;101401.31;5238979;28;20035;-81
2022/01/17 08:44:50;;;;;;;8.10;1.70;;;;;;;5.66;100.00;101391.84;5247306;28;20069;-81
2022/01/17 08:47:20;;;;;;;10.30;1.30;;;;;;;5.73;100.00;101403.94;5253965;28;20032;-80
2022/01/17 08:49:51;;;;;;;8.02;1.20;;;;;;;5.76;100.00;101409.97;5258878;28;20434;-81
2022/01/17 08:52:22;;;;;;;9.75;1.60;;;;;;;5.72;100.00;101412.59;5254815;28;20107;-81
2022/01/17 08:54:53;;;;;;;7.38;1.52;;;;;;;5.76;100.00;101416.91;5244526;22;20076;-78
2022/01/17 08:57:24;;;;;;;8.02;1.00;;;;;;;5.75;100.00;101408.22;5206201;28;20437;-79
2022/01/17 08:59:54;;;;;;;6.85;1.20;;;;;;;5.80;100.00;101401.38;5206171;28;20440;-78
2022/01/17 09:02:25;;;;;;;5.35;1.25;;;;;;;5.84;100.00;101392.69;5204631;28;20108;-78
2022/01/17 09:04:55;;;;;;;6.75;1.27;;;;;;;5.84;100.00;101397.00;5197238;28;20022;-77
2022/01/17 09:07:25;;;;;;;9.93;1.85;;;;;;;5.85;100.00;101398.72;5192628;28;20018;-77
2022/01/17 09:09:56;;;;;;;6.38;1.20;;;;;;;5.81;100.00;101412.59;5192179;28;20030;-78
2022/01/17 09:12:26;;;;;;;6.10;1.60;;;;;;;5.87;100.00;101402.19;5195804;28;20028;-78
2022/01/17 09:14:57;;;;;;;9.43;1.90;;;;;;;5.91;100.00;101393.53;5194135;28;20030;-78
2022/01/17 09:17:27;;;;;;;8.27;1.20;;;;;;;5.89;100.00;101406.50;5196187;28;20029;-79
2022/01/17 09:19:57;;;;;;;8.48;1.90;;;;;;;5.87;100.00;101403.06;5193791;28;20586;-77
2022/01/17 09:22:29;;;;;;;4.07;1.40;;;;;;;5.86;100.00;101401.31;5196058;28;20033;-77
2022/01/17 09:24:59;;;;;;;9.68;2.03;;;;;;;5.87;100.00;101408.25;5194419;28;20022;-78
2022/01/17 09:27:30;;;;;;;5.57;1.50;;;;;;;5.90;100.00;101412.56;5197311;28;20057;-76
2022/01/17 09:30:02;;;;;;;8.52;1.58;;;;;;;5.91;100.00;101437.63;5197096;28;20033;-77
2022/01/17 09:32:32;;;;;;;7.32;2.13;;;;;;;5.94;100.00;101441.06;5194640;28;20395;-78
2022/01/17 09:35:05;;;;;;;8.13;1.70;;;;;;;6.01;100.00;101441.91;5196278;28;20036;-78
2022/01/17 09:37:35;;;;;;;12.93;1.85;;;;;;;6.03;100.00;101446.22;5189351;28;20106;-78
2022/01/17 09:40:09;;;;;;;6.82;1.58;;;;;;;6.00;100.00;101446.25;5187196;28;20196;-78
2022/01/17 09:42:39;;;;;;;9.32;2.15;;;;;;;5.98;100.00;101465.28;5191077;28;20048;-78
2022/01/17 09:45:13;;;;;;;6.25;1.58;;;;;;;6.01;100.00;101458.34;5194271;28;20301;-78
2022/01/17 09:47:45;;;;;;;9.68;1.73;;;;;;;6.03;100.00;101451.41;5199176;28;20128;-77
2022/01/17 09:50:20;;;;;;;8.82;2.42;;;;;;;6.04;100.00;101454.88;5197424;28;20033;-78
2022/01/17 09:52:53;;;;;;;9.52;2.28;;;;;;;6.06;100.00;101443.63;5178894;28;20026;-78
2022/01/17 09:55:26;;;;;;;7.88;2.00;;;;;;;6.14;100.00;101438.41;5195163;28;20333;-77
2022/01/17 09:58:05;;;;;;;7.75;1.90;;;;;;;6.16;100.00;101441.84;5193221;28;20112;-78
2022/01/17 10:00:43;;;;;;;7.28;2.15;;;;;;;6.21;100.00;101443.56;5193902;28;20083;-77
2022/01/17 10:03:17;;;;;;;6.07;2.30;;;;;;;6.22;100.00;101431.47;5195443;28;20028;-78
2022/01/17 10:05:47;;;;;;;9.38;2.80;;;;;;;6.23;100.00;101438.38;5197275;28;20108;-78
2022/01/17 10:08:20;;;;;;;5.40;2.13;;;;;;;6.27;100.00;101429.72;5194793;28;20112;-78
2022/01/17 10:11:00;;;;;;;10.27;2.78;;;;;;;6.27;100.00;101450.47;5194684;28;20037;-77
2022/01/17 10:13:37;;;;;;;5.93;2.05;;;;;;;6.34;100.00;101447.84;5182141;28;20257;-77
2022/01/17 10:16:19;;;;;;;10.60;3.10;;;;;;;6.39;100.00;101456.47;5197004;28;20480;-77
2022/01/17 10:19:02;;;;;;;16.60;4.13;;;;;;;6.43;100.00;101447.78;5199756;28;20083;-78
2022/01/17 10:21:46;;;;;;;13.75;3.50;;;;;;;6.49;100.00;101426.13;5194782;28;20471;-77
2022/01/17 10:24:26;;;;;;;9.90;3.60;;;;;;;6.43;100.00;101436.56;5195479;28;20053;-77
2022/01/17 10:35:21;;;;;;;10.00;2.63;;;;;;;6.72;100.00;101439.81;5195306;28;20033;-76
2022/01/17 10:38:15;;;;;;;11.77;2.75;;;;;;;6.76;100.00;101438.97;5186322;28;20510;-78
2022/01/17 10:40:56;;;;;;;11.90;2.67;;;;;;;6.88;100.00;101431.06;5184639;28;20049;-77
2022/01/17 10:43:42;;;;;;;14.85;4.45;;;;;;;6.93;100.00;101435.34;5192536;28;20197;-77
2022/01/17 10:46:13;;;;;;;10.90;2.47;;;;;;;7.04;100.00;101428.34;5197341;28;20030;-78
2022/01/17 10:48:45;;;;;;;9.52;2.95;;;;;;;7.15;100.00;101425.66;5199436;28;20025;-77
2022/01/17 10:51:18;;;;;;;13.73;4.03;;;;;;;7.22;100.00;101439.44;5195318;28;20084;-78
2022/01/17 10:53:50;;;;;;;18.85;7.32;;;;;;;7.18;100.00;101456.84;5192278;28;20060;-77
2022/01/17 10:56:24;;;;;;;12.57;3.10;;;;;;;7.10;100.00;101458.66;5188328;28;20419;-77
2022/01/17 10:59:03;;;;;;;17.38;5.50;;;;;;;7.11;100.00;101475.97;5186291;28;20045;-78
2022/01/17 11:01:37;;;;;;;10.95;3.38;;;;;;;7.09;100.00;101462.13;5190430;28;20038;-77
2022/01/17 11:04:10;;;;;;;6.72;2.67;;;;;;;7.02;100.00;101460.41;5196253;28;20080;-78
2022/01/17 11:06:47;;;;;;;9.60;3.40;;;;;;;7.06;100.00;101449.13;5196317;28;20047;-78
2022/01/17 11:09:22;;;;;;;10.57;2.67;;;;;;;7.12;100.00;101464.69;5194361;28;20098;-78
2022/01/17 11:11:53;;;;;;;9.07;2.42;;;;;;;7.14;100.00;101470.72;5189956;28;20047;-77
2022/01/17 11:14:23;;;;;;;13.48;3.50;;;;;;;7.09;100.00;101469.91;5197755;28;20030;-77
2022/01/17 11:16:53;;;;;;;11.15;2.47;;;;;;;7.10;100.00;101459.50;5198488;28;20390;-78
2022/01/17 11:22:14;;;;;;;16.95;3.55;;;;;;;7.16;100.00;101433.47;5199525;28;20035;-78
2022/01/17 11:24:44;;;;;;;16.92;3.05;;;;;;;7.13;100.00;101450.81;5199088;28;20037;-78
2022/01/17 11:27:14;;;;;;;15.32;3.85;;;;;;;7.15;100.00;101449.06;5194893;28;20059;-79
2022/01/17 11:29:47;;;;;;;13.80;3.78;;;;;;;7.22;100.00;101445.53;5196152;28;20030;-78
2022/01/17 11:32:18;;;;;;;13.02;3.58;;;;;;;7.28;100.00;101461.09;5194326;28;20072;-78
2022/01/17 11:34:51;;;;;;;14.00;3.50;;;;;;;7.28;100.00;101467.13;5189372;28;20028;-78
2022/01/17 11:37:22;;;;;;;13.25;3.50;;;;;;;7.29;100.00;101467.13;5185128;28;20057;-79
2022/01/17 11:39:55;;;;;;;13.73;3.63;;;;;;;7.33;100.00;101468.00;5191043;28;20037;-78
2022/01/17 11:42:39;;;;;;;17.83;3.17;;;;;;;7.36;100.00;101473.16;5189551;28;20036;-79
2022/01/17 11:45:33;;;;;;;15.52;3.22;;;;;;;7.51;100.00;101471.28;5191793;28;20498;-78
2022/01/17 11:48:07;;;;;;;12.38;2.78;;;;;;;7.52;100.00;101483.41;5179534;28;20073;-79
2022/01/17 11:50:45;;;;;;;12.02;2.80;;;;;;;7.51;100.00;101499.88;5195591;28;20034;-78
2022/01/17 11:53:15;;;;;;;12.98;3.00;;;;;;;7.52;100.00;101499.00;5189118;28;20500;-79
2022/01/17 11:55:48;;;;;;;9.60;2.63;;;;;;;7.52;100.00;101491.22;5196363;28;20088;-78
2022/01/17 11:58:30;;;;;;;19.30;3.25;;;;;;;7.61;100.00;101490.25;5189145;28;20884;-79
2022/01/17 12:01:04;;;;;;;13.77;3.13;;;;;;;7.64;100.00;101498.91;5193751;28;20467;-79
2022/01/17 12:03:45;;;;;;;9.05;2.33;;;;;;;7.67;100.00;101511.88;5197066;28;20030;-78
2022/01/17 12:06:32;;;;;;;13.02;3.00;;;;;;;7.67;100.00;101500.63;5192934;28;20049;-78
2022/01/17 12:09:21;;;;;;;11.93;2.45;;;;;;;7.65;100.00;101492.84;5187975;28;20045;-78
2022/01/17 12:12:03;;;;;;;7.47;2.42;;;;;;;7.62;100.00;101503.28;5191133;28;20029;-79
2022/01/17 12:14:41;;;;;;;7.40;2.58;;;;;;;7.56;100.00;101508.50;5198938;28;20039;-80
2022/01/17 12:17:23;;;;;;;11.02;2.90;;;;;;;7.52;100.00;101512.00;5191277;28;20408;-79
2022/01/17 12:20:06;;;;;;;12.88;3.90;;;;;;;7.49;100.00;101509.44;5182176;28;20026;-79